Time;durP1;ratioP1;P1;durP2;ratioP2;P2;SDS_P1;SDS_P2;PMS_P1;PMS_P2;Temp;Humidity;BMP_temperature;BMP_pressure;BME280_temperature;BME280_humidity;BME280_pressure;Samples;Min_cycle;Max_cycle;Signal;HPM_P1;HPM_P2
2021/10/26 00:01:04;;;;;;;647.30;598.45;;;14.70;85.20;;;14.05;100.00;101068.44;4989716;28;20434;-64
2021/10/26 00:03:32;;;;;;;658.03;608.63;;;14.70;84.50;;;13.93;100.00;101074.41;4990115;28;20895;-67
2021/10/26 00:06:00;;;;;;;649.95;600.90;;;14.60;84.50;;;13.90;100.00;101069.56;4990059;28;20962;-63
2021/10/26 00:08:28;;;;;;;654.10;604.72;;;14.60;84.90;;;13.88;100.00;101071.81;4989360;28;20841;-65
2021/10/26 00:10:56;;;;;;;374.00;288.73;;;14.60;85.30;;;13.93;100.00;101074.41;4991790;28;20246;-65
2021/10/26 00:13:26;;;;;;;362.98;230.98;;;14.60;85.50;;;13.86;100.00;101062.34;4990392;28;20328;-63
2021/10/26 00:15:54;;;;;;;541.65;494.60;;;14.50;86.40;;;13.72;100.00;101069.72;4989964;28;20946;-63
2021/10/26 00:18:22;;;;;;;590.65;542.45;;;14.40;87.20;;;13.63;100.00;101072.34;4989100;28;20418;-66
2021/10/26 00:20:50;;;;;;;612.65;563.97;;;14.40;86.90;;;13.62;100.00;101068.81;4989904;28;20464;-66
2021/10/26 00:23:18;;;;;;;598.92;550.85;;;14.30;87.20;;;13.63;100.00;101070.44;4989145;28;20481;-67
2021/10/26 00:25:46;;;;;;;626.38;577.65;;;14.40;86.80;;;13.55;100.00;101071.16;4989769;28;20457;-65
2021/10/26 00:28:14;;;;;;;630.97;582.15;;;14.30;85.40;;;13.48;100.00;101067.22;4988509;28;20892;-67
2021/10/26 00:30:43;;;;;;;608.95;560.50;;;14.20;85.40;;;13.32;100.00;101057.75;4987743;28;20449;-64
2021/10/26 00:33:11;;;;;;;610.53;562.10;;;14.10;84.30;;;13.22;100.00;101063.41;4988150;28;20753;-63
2021/10/26 00:35:39;;;;;;;601.22;552.97;;;14.00;84.30;;;13.15;100.00;101052.94;4989960;28;20514;-63
2021/10/26 00:38:08;;;;;;;593.28;545.05;;;13.90;84.70;;;13.17;100.00;101061.59;4988798;28;20418;-65
2021/10/26 00:40:36;;;;;;;368.90;259.63;;;13.90;86.40;;;13.23;100.00;101049.50;4991394;28;20275;-65
2021/10/26 00:43:04;;;;;;;518.45;471.48;;;13.90;86.00;;;13.16;100.00;101048.31;4990299;28;20537;-65
2021/10/26 00:45:32;;;;;;;557.67;509.88;;;13.90;86.60;;;13.07;100.00;101043.53;4990464;28;20929;-63
2021/10/26 00:48:01;;;;;;;574.47;526.38;;;13.80;86.10;;;13.07;100.00;101048.97;4989713;28;20446;-66
2021/10/26 00:50:29;;;;;;;572.43;524.60;;;13.80;86.60;;;12.92;100.00;101049.25;4990146;28;20422;-63
2021/10/26 00:52:57;;;;;;;574.22;526.35;;;13.70;85.10;;;12.76;100.00;101036.28;4990150;28;20588;-62
2021/10/26 00:55:25;;;;;;;564.15;516.38;;;13.50;85.70;;;12.69;100.00;101038.56;4990177;28;20444;-64
2021/10/26 00:57:53;;;;;;;562.00;513.90;;;13.50;86.90;;;12.70;100.00;101045.63;4989589;28;20418;-64
2021/10/26 01:00:22;;;;;;;558.65;510.95;;;13.50;88.20;;;12.75;100.00;101046.31;4992291;28;20508;-63
2021/10/26 01:02:50;;;;;;;563.03;514.83;;;13.50;88.60;;;12.86;100.00;101046.94;4993765;28;20528;-65
2021/10/26 01:05:19;;;;;;;559.30;511.30;;;13.60;88.60;;;12.95;100.00;101048.66;4993841;28;20472;-65
2021/10/26 01:07:47;;;;;;;570.00;522.17;;;13.70;88.80;;;13.03;100.00;101049.88;4992796;28;20441;-65
2021/10/26 01:10:15;;;;;;;369.77;246.13;;;13.80;88.90;;;13.12;100.00;101043.50;4994997;28;20239;-63
2021/10/26 01:12:44;;;;;;;502.37;455.60;;;13.80;88.50;;;12.94;100.00;101043.53;4993580;28;20932;-63
2021/10/26 01:15:12;;;;;;;552.92;505.25;;;13.70;87.10;;;12.85;100.00;101039.91;4993762;28;20441;-66
2021/10/26 01:17:40;;;;;;;579.72;531.58;;;13.60;87.30;;;12.84;100.00;101044.53;4993166;28;20900;-65
2021/10/26 01:20:11;;;;;;;564.30;516.53;;;13.60;87.50;;;12.79;100.00;101036.50;4993224;28;20415;-64
2021/10/26 01:22:42;;;;;;;557.33;509.73;;;13.50;87.50;;;12.74;100.00;101046.59;4993303;28;20841;-66
2021/10/26 01:25:12;;;;;;;569.63;521.45;;;13.50;87.80;;;12.59;100.00;101045.78;4993583;28;20421;-63
2021/10/26 01:27:48;;;;;;;578.07;530.20;;;13.40;87.80;;;12.54;100.00;101036.94;4992922;28;20448;-64
2021/10/26 01:30:17;;;;;;;575.47;527.22;;;13.30;88.50;;;12.63;100.00;101042.47;4993375;28;20419;-64
2021/10/26 01:32:45;;;;;;;591.35;542.80;;;13.40;89.80;;;12.89;100.00;101040.91;4993022;28;20422;-68
2021/10/26 01:35:15;;;;;;;592.85;544.75;;;13.70;90.40;;;12.89;100.00;101039.00;4993208;28;20437;-61
2021/10/26 01:37:43;;;;;;;572.60;525.10;;;13.70;88.10;;;12.79;100.00;101039.19;4992645;28;20477;-62
2021/10/26 01:40:12;;;;;;;576.40;528.60;;;13.60;86.00;;;12.67;100.00;101035.34;4993129;28;20418;-63
2021/10/26 01:42:40;;;;;;;569.63;521.67;;;13.40;85.30;;;12.71;100.00;101036.34;4993105;28;20509;-66
2021/10/26 01:45:09;;;;;;;573.92;525.78;;;13.40;87.40;;;12.79;100.00;101036.50;4992833;28;20418;-65
2021/10/26 01:47:37;;;;;;;564.17;516.45;;;13.50;88.50;;;12.82;100.00;101035.09;4992363;28;20505;-64
2021/10/26 01:50:07;;;;;;;576.37;528.10;;;13.60;88.30;;;12.77;100.00;101029.72;4993020;28;20446;-64
2021/10/26 01:52:37;;;;;;;555.38;508.02;;;13.50;86.70;;;12.77;100.00;101030.53;4993068;28;20469;-64
2021/10/26 01:55:08;;;;;;;564.35;516.50;;;13.50;86.90;;;12.85;100.00;101032.59;4992946;28;20418;-63
2021/10/26 01:57:36;;;;;;;564.92;517.17;;;13.60;88.30;;;12.85;100.00;101037.19;4992009;28;20940;-66
2021/10/26 02:00:07;;;;;;;565.00;517.15;;;13.60;88.40;;;12.84;100.00;101032.88;4992636;28;20426;-63
2021/10/26 02:02:35;;;;;;;571.87;524.03;;;13.60;89.00;;;12.85;100.00;101037.19;4992728;28;20438;-63
2021/10/26 02:05:05;;;;;;;563.88;515.97;;;13.70;89.00;;;12.93;100.00;101026.44;4992790;28;20418;-64
2021/10/26 02:07:33;;;;;;;578.47;530.30;;;13.70;89.10;;;12.92;100.00;101016.69;4992131;28;20458;-63
2021/10/26 02:10:02;;;;;;;585.08;537.05;;;13.70;88.40;;;12.91;100.00;101019.72;4992611;28;20454;-63
2021/10/26 02:12:30;;;;;;;572.75;525.15;;;13.70;88.60;;;12.71;100.00;101017.34;4991824;28;20501;-67
2021/10/26 02:14:58;;;;;;;571.00;523.20;;;13.50;87.30;;;12.61;100.00;101011.00;4992699;28;20460;-63
2021/10/26 02:17:26;;;;;;;594.63;546.00;;;13.40;88.00;;;12.65;100.00;101016.66;4991818;28;20453;-61
2021/10/26 02:19:54;;;;;;;583.53;535.03;;;13.40;89.00;;;12.67;100.00;101008.22;4992598;28;20421;-64
2021/10/26 02:22:22;;;;;;;563.25;515.42;;;13.40;89.00;;;12.75;100.00;101011.03;4992386;28;20485;-66
2021/10/26 02:24:51;;;;;;;589.50;541.08;;;13.50;89.40;;;12.87;100.00;101011.38;4992157;28;20449;-63
2021/10/26 02:27:20;;;;;;;595.10;546.90;;;13.60;90.00;;;12.93;100.00;101010.16;4991676;28;20517;-65
2021/10/26 02:29:48;;;;;;;584.13;536.07;;;13.70;89.60;;;12.90;100.00;100997.19;4992339;28;20414;-63
2021/10/26 02:32:17;;;;;;;573.45;525.67;;;13.70;88.90;;;12.85;100.00;101000.00;4992281;28;20442;-64
2021/10/26 02:34:45;;;;;;;592.87;544.53;;;13.60;88.80;;;12.87;100.00;101005.13;4992297;28;20418;-64
2021/10/26 02:37:13;;;;;;;592.88;544.67;;;13.60;89.20;;;12.84;100.00;100992.97;4991042;28;20955;-66
2021/10/26 02:39:41;;;;;;;604.35;555.75;;;13.70;88.90;;;12.85;100.00;100997.31;4992062;28;20505;-64
2021/10/26 02:42:09;;;;;;;597.95;549.05;;;13.70;89.30;;;12.95;100.00;100994.38;4991863;28;20529;-66
2021/10/26 02:44:39;;;;;;;596.30;547.85;;;13.70;90.00;;;13.01;100.00;100995.88;4992082;28;20470;-63
2021/10/26 02:47:07;;;;;;;612.35;563.40;;;13.80;89.80;;;12.98;100.00;100987.56;4991212;28;20463;-61
2021/10/26 02:49:35;;;;;;;595.25;546.90;;;13.80;89.30;;;12.94;100.00;100990.06;4991601;28;20472;-64
2021/10/26 02:52:03;;;;;;;591.97;543.53;;;13.70;89.10;;;12.91;100.00;100987.97;4991468;28;20991;-63
2021/10/26 02:54:31;;;;;;;601.70;552.93;;;13.70;89.30;;;12.94;100.00;100990.06;4991865;28;20422;-62
2021/10/26 02:56:59;;;;;;;587.88;539.58;;;13.70;89.60;;;13.08;100.00;100987.38;4991488;28;20904;-61
2021/10/26 11:56:53;;;;;;;926.50;871.27;;;25.50;54.00;;;24.36;73.13;100990.03;4980821;28;20501;-63
2021/10/26 11:59:37;;;;;;;973.28;916.78;;;25.20;55.10;;;24.23;79.29;100990.66;4989365;28;20422;-63
2021/10/26 12:02:13;;;;;;;942.75;887.35;;;25.10;56.10;;;24.23;78.45;100988.69;4972164;28;20479;-65
2021/10/26 12:04:43;;;;;;;990.60;932.63;;;25.00;55.40;;;24.27;80.79;100988.75;4983727;28;20454;-67
2021/10/26 12:07:14;;;;;;;985.92;928.75;;;25.10;56.00;;;24.12;79.53;100987.00;4970322;28;20439;-65
2021/10/26 12:09:47;;;;;;;978.67;921.17;;;24.90;55.50;;;23.73;89.63;100989.25;4970769;28;20744;-67
2021/10/26 12:12:20;;;;;;;935.65;880.38;;;24.60;57.30;;;23.67;96.63;100986.00;4970505;28;20956;-65
2021/10/26 12:14:49;;;;;;;912.47;857.38;;;24.50;58.00;;;23.70;100.00;100979.75;4970613;28;20538;-65
2021/10/26 12:17:27;;;;;;;925.20;870.17;;;24.50;59.50;;;23.64;100.00;100977.69;4970056;28;20428;-66
2021/10/26 12:20:04;;;;;;;935.15;879.63;;;24.50;60.10;;;23.35;100.00;100973.69;4970753;28;20565;-63
2021/10/26 12:22:35;;;;;;;938.00;882.30;;;24.20;61.20;;;23.18;100.00;100968.72;4970261;28;20848;-64
2021/10/26 12:25:15;;;;;;;879.50;826.35;;;24.00;61.60;;;23.06;100.00;100966.97;4970405;28;20427;-66
2021/10/26 12:27:48;;;;;;;931.42;876.22;;;23.90;59.90;;;22.89;100.00;100970.22;4984310;28;20423;-66
2021/10/26 12:30:26;;;;;;;916.47;861.75;;;23.70;59.90;;;22.78;100.00;100972.00;4989955;28;20500;-64
2021/10/26 12:33:00;;;;;;;943.58;887.75;;;23.60;60.20;;;22.71;100.00;100961.63;4989858;28;20410;-65
2021/10/26 12:35:32;;;;;;;923.45;868.72;;;23.50;59.40;;;22.74;100.00;100955.41;4989480;28;20509;-67
2021/10/26 12:38:13;;;;;;;945.75;889.92;;;23.50;60.30;;;23.01;100.00;100958.22;4989228;28;20873;-64
2021/10/26 12:40:44;;;;;;;931.45;876.20;;;23.70;59.70;;;23.20;94.07;100945.09;4989870;28;20418;-66
2021/10/26 12:43:20;;;;;;;945.30;889.70;;;23.90;57.20;;;23.30;91.32;100943.66;4989740;28;20489;-64
2021/10/26 12:45:49;;;;;;;933.92;878.97;;;24.00;56.80;;;23.40;85.86;100937.53;4989357;28;20516;-65
2021/10/26 12:48:17;;;;;;;941.95;886.50;;;24.10;56.00;;;23.52;85.22;100923.50;4988926;28;20450;-66
2021/10/26 12:50:55;;;;;;;942.72;887.63;;;24.20;56.00;;;23.65;82.29;100924.06;4989547;28;20457;-65
2021/10/26 12:53:36;;;;;;;926.47;871.38;;;24.40;55.70;;;23.72;81.89;100929.66;4989595;28;20745;-66
2021/10/26 12:56:19;;;;;;;971.63;915.33;;;24.50;55.60;;;23.61;76.25;100926.78;4991044;28;20430;-66
2021/10/26 12:58:50;;;;;;;964.60;908.63;;;24.40;54.10;;;23.39;76.41;100924.91;4992799;28;20425;-68
2021/10/26 13:01:33;;;;;;;957.80;902.00;;;24.20;54.30;;;23.33;74.76;100921.63;4993379;28;20888;-65
2021/10/26 13:04:08;;;;;;;967.72;911.72;;;24.10;53.90;;;23.33;80.08;100924.41;4993257;28;20430;-63
2021/10/26 13:06:40;;;;;;;949.03;893.65;;;24.10;55.50;;;23.52;75.69;100918.00;4992502;28;20906;-64
2021/10/26 13:09:21;;;;;;;968.50;911.90;;;24.30;54.40;;;23.50;76.81;100914.03;4993172;28;20422;-65
2021/10/26 13:11:49;;;;;;;935.20;880.22;;;24.30;54.70;;;23.64;78.53;100906.69;4993151;28;20453;-66
2021/10/26 13:14:21;;;;;;;972.95;916.13;;;24.40;55.30;;;23.70;73.58;100909.91;4993125;28;20439;-65
2021/10/26 13:16:50;;;;;;;934.75;879.75;;;24.40;53.80;;;23.60;75.64;100908.63;4992012;28;20561;-65
2021/10/26 13:19:28;;;;;;;967.90;911.63;;;24.40;54.60;;;23.60;69.46;100905.84;4992966;28;20434;-68
2021/10/26 13:22:09;;;;;;;966.33;910.50;;;24.40;52.80;;;23.56;68.36;100904.25;4993063;28;20480;-67
2021/10/26 13:24:39;;;;;;;960.85;905.20;;;24.30;52.80;;;23.60;nan;100894.00;4993071;28;20513;-64
2021/10/26 13:27:10;;;;;;;911.17;856.85;;;24.30;52.30;;;23.58;65.79;100894.41;4992006;28;20449;-65
2021/10/26 13:29:45;;;;;;;926.28;871.70;;;24.30;52.10;;;23.72;64.86;100891.81;4992821;28;20489;-67
2021/10/26 13:32:20;;;;;;;960.17;904.55;;;24.40;51.80;;;23.83;62.18;100886.41;4992775;28;20422;-65
2021/10/26 13:34:50;;;;;;;988.63;931.72;;;24.50;50.70;;;23.89;62.53;100880.16;4992610;28;20430;-62
2021/10/26 13:37:20;;;;;;;953.05;897.35;;;24.60;51.00;;;23.93;60.16;100877.44;4992061;28;20481;-67
2021/10/26 13:39:49;;;;;;;979.25;922.78;;;24.70;50.20;;;23.95;60.68;100881.41;4992448;28;20907;-66
2021/10/26 13:42:17;;;;;;;963.38;907.65;;;24.70;50.60;;;24.06;60.01;100872.44;4992241;28;20454;-66
2021/10/26 13:44:47;;;;;;;978.53;922.20;;;24.80;50.40;;;24.06;59.76;100866.91;4992451;28;20765;-65
2021/10/26 13:47:18;;;;;;;959.60;903.97;;;24.80;50.50;;;24.05;59.75;100870.84;4991916;28;20581;-62
2021/10/26 13:49:46;;;;;;;963.60;908.08;;;24.80;50.40;;;24.00;58.30;100858.19;4992498;28;20520;-66
2021/10/26 13:52:15;;;;;;;980.78;924.45;;;24.70;49.80;;;24.02;60.46;100852.25;4992218;28;20531;-65
2021/10/26 13:54:43;;;;;;;988.88;932.00;;;24.80;50.80;;;24.10;61.75;100859.47;4992294;28;20422;-63
2021/10/26 13:57:11;;;;;;;981.92;925.60;;;24.90;51.30;;;24.10;58.01;100857.50;4991600;28;20464;-62
2021/10/26 13:59:39;;;;;;;923.80;869.30;;;24.90;49.70;;;24.13;57.98;100853.22;4992456;28;20461;-63
2021/10/26 14:02:09;;;;;;;945.10;889.85;;;24.90;49.90;;;24.18;60.40;100858.38;4992103;28;20430;-64
2021/10/26 14:04:38;;;;;;;947.65;892.22;;;24.90;50.90;;;24.12;59.82;100857.13;4992087;28;20445;-64
2021/10/26 14:07:06;;;;;;;993.55;936.58;;;24.90;50.60;;;24.12;60.98;100863.47;4990592;28;20422;-61
2021/10/26 14:09:34;;;;;;;993.22;936.33;;;24.90;51.20;;;24.11;57.07;100847.25;4992296;28;20410;-64
2021/10/26 14:12:02;;;;;;;975.33;919.10;;;24.90;49.40;;;24.12;59.48;100849.66;4992109;28;20900;-63
2021/10/26 14:14:32;;;;;;;996.92;939.78;;;24.90;50.70;;;24.03;61.03;100860.19;4992091;28;20792;-67
2021/10/26 14:17:00;;;;;;;989.70;932.70;;;24.80;51.20;;;24.02;63.12;100857.78;4991399;28;20476;-65
2021/10/26 14:19:29;;;;;;;991.40;934.33;;;24.80;52.10;;;23.98;69.67;100859.75;4991662;28;20418;-67
2021/10/26 14:21:57;;;;;;;992.88;935.70;;;24.80;54.30;;;23.95;69.57;100853.78;4991921;28;20418;-64
2021/10/26 14:24:32;;;;;;;990.30;932.88;;;24.80;53.90;;;23.82;72.83;100855.25;4991692;28;20434;-65
2021/10/26 14:27:00;;;;;;;992.00;934.78;;;24.70;54.80;;;23.80;78.24;100846.53;4991230;28;20454;-63
2021/10/26 14:29:28;;;;;;;989.15;931.83;;;24.60;55.80;;;23.74;83.47;100855.53;4991770;28;20424;-66
2021/10/26 14:31:56;;;;;;;990.08;932.45;;;24.60;56.50;;;23.68;85.35;100843.25;4991657;28;20897;-67
2021/10/26 14:34:25;;;;;;;988.40;930.72;;;24.50;56.80;;;23.54;89.04;100849.38;4991495;28;20505;-67
2021/10/26 14:37:00;;;;;;;989.65;932.47;;;24.40;57.40;;;23.51;95.39;100855.66;4990988;28;20484;-63
2021/10/26 14:39:50;;;;;;;990.22;933.00;;;24.40;58.30;;;23.55;93.02;100845.47;4991666;28;20837;-66
2021/10/26 14:53:47;;;;;;;996.53;938.55;;;24.50;57.10;;;23.85;81.62;100848.97;4989850;28;20437;-66
2021/10/26 14:56:15;;;;;;;992.33;934.72;;;24.70;55.40;;;23.95;78.46;100850.25;4989867;28;20446;-66
2021/10/26 14:58:44;;;;;;;1001.53;943.72;;;24.70;54.80;;;24.06;76.58;100848.38;4990943;28;20457;-63
2021/10/26 15:01:13;;;;;;;997.90;940.03;;;24.90;54.70;;;24.07;74.48;100851.94;4991014;28;20429;-63
2021/10/26 15:03:42;;;;;;;1004.47;946.33;;;24.90;54.10;;;24.04;77.44;100849.94;4990991;28;20529;-65
2021/10/26 15:06:13;;;;;;;1003.95;946.17;;;24.90;54.90;;;23.99;79.92;100847.50;4991095;28;20485;-62
2021/10/26 15:08:49;;;;;;;999.05;941.38;;;24.90;55.70;;;23.95;79.08;100853.00;4991028;28;20429;-63
2021/10/26 15:11:18;;;;;;;998.43;940.33;;;24.80;55.20;;;23.98;80.13;100854.22;4990981;28;20445;-62
2021/10/26 15:13:49;;;;;;;1000.55;942.88;;;24.90;55.70;;;23.98;74.53;100848.69;4990624;28;20418;-64
2021/10/26 15:16:18;;;;;;;998.67;940.97;;;24.90;54.10;;;23.95;76.24;100851.03;4990645;28;20884;-65
2021/10/26 15:18:48;;;;;;;991.33;933.88;;;24.80;54.70;;;23.88;81.47;100850.97;4990609;28;20894;-62
2021/10/26 15:21:20;;;;;;;996.60;938.53;;;24.80;55.80;;;23.83;87.74;100851.28;4990843;28;20873;-65
2021/10/26 15:34:50;;;;;;;985.63;928.60;;;24.50;53.50;;;23.45;72.30;100868.22;4986511;28;20802;-64
2021/10/26 15:37:18;;;;;;;983.93;927.13;;;24.30;54.00;;;23.35;73.22;100866.88;4989399;28;20893;-62
2021/10/26 15:39:50;;;;;;;979.90;923.00;;;24.20;54.10;;;23.22;75.21;100873.00;4990219;28;20472;-65
2021/10/26 15:42:18;;;;;;;971.72;915.42;;;24.10;54.80;;;23.08;77.74;100873.59;4990567;28;20419;-67
2021/10/26 15:44:46;;;;;;;972.65;916.08;;;24.00;55.50;;;23.09;79.21;100874.38;4990040;28;21305;-66
2021/10/26 15:47:15;;;;;;;972.75;916.30;;;24.00;55.80;;;23.06;82.34;100886.97;4989700;28;20513;-65
2021/10/26 15:49:44;;;;;;;971.95;915.65;;;23.90;56.30;;;23.04;79.99;100881.00;4990451;28;20812;-62
2021/10/26 15:52:14;;;;;;;969.17;913.03;;;23.90;55.80;;;22.95;79.94;100882.47;4990458;28;20434;-65
2021/10/26 15:54:42;;;;;;;967.63;911.45;;;23.90;56.00;;;22.94;81.12;100881.66;4990356;28;20526;-65
2021/10/26 15:57:13;;;;;;;967.97;911.72;;;23.80;55.90;;;22.88;81.58;100882.34;4989336;28;20417;-66
2021/10/26 15:59:43;;;;;;;950.60;894.92;;;23.80;56.00;;;22.86;82.52;100889.03;4990197;28;20549;-66
2021/10/26 16:02:11;;;;;;;962.20;906.00;;;23.70;56.20;;;22.89;83.23;100894.97;4990137;28;20529;-66
2021/10/26 16:04:39;;;;;;;967.33;911.22;;;23.80;56.50;;;22.89;81.16;100895.75;4990160;28;20434;-63
2021/10/26 16:07:06;;;;;;;964.27;908.37;;;23.80;55.90;;;22.81;80.38;100886.59;4989429;28;20421;-66
2021/10/26 16:09:48;;;;;;;970.40;913.95;;;23.70;55.60;;;22.69;82.44;100894.25;4990170;28;20472;-66
2021/10/26 16:12:21;;;;;;;964.97;908.75;;;23.60;56.40;;;22.57;84.22;100895.22;4989992;28;20419;-67
2021/10/26 16:15:00;;;;;;;966.67;910.50;;;23.50;56.70;;;22.45;81.92;100878.88;4990118;28;20512;-63
2021/10/26 16:17:29;;;;;;;958.65;902.65;;;23.30;56.10;;;22.24;81.07;100895.06;4989369;28;20422;-65
2021/10/26 16:19:57;;;;;;;963.72;907.50;;;23.10;56.10;;;22.15;85.53;100898.06;4989918;28;20895;-65
2021/10/26 16:22:25;;;;;;;934.13;878.93;;;23.10;57.00;;;21.99;85.91;100896.53;4989743;28;20415;-65
2021/10/26 16:24:53;;;;;;;938.25;882.97;;;22.90;57.10;;;21.79;85.93;100899.28;4989879;28;20514;-61
2021/10/26 16:27:25;;;;;;;948.55;892.85;;;22.60;56.90;;;21.65;91.33;100903.69;4989314;28;20538;-65
2021/10/26 16:29:55;;;;;;;933.17;878.25;;;22.50;58.00;;;21.45;90.71;100902.91;5316329;23;20442;-62
2021/10/26 16:32:25;;;;;;;934.17;878.87;;;22.30;57.80;;;21.31;94.07;100910.84;4986213;28;20481;-64
2021/10/26 16:34:53;;;;;;;936.05;880.65;;;22.20;58.20;;;21.16;95.33;100906.19;4993653;28;20422;-64
2021/10/26 16:37:26;;;;;;;931.85;876.47;;;22.10;58.40;;;21.05;99.31;100905.13;4991896;28;20473;-63
2021/10/26 16:39:57;;;;;;;927.00;872.00;;;21.90;59.00;;;20.97;100.00;100909.66;4992619;28;20839;-63
2021/10/26 16:42:33;;;;;;;923.78;868.78;;;21.90;59.30;;;20.86;100.00;100916.03;4993373;28;20414;-62
2021/10/26 16:45:10;;;;;;;918.55;863.75;;;21.80;59.50;;;20.77;100.00;100907.19;4993195;28;20430;-65
2021/10/26 16:47:39;;;;;;;920.60;865.95;;;21.70;59.70;;;20.68;100.00;100908.19;4993653;28;20446;-63
2021/10/26 16:50:09;;;;;;;911.88;857.28;;;21.60;59.40;;;20.59;100.00;100904.00;4992808;28;20456;-68
2021/10/26 16:52:37;;;;;;;916.13;861.63;;;21.50;60.40;;;20.53;100.00;100908.19;4993532;28;20465;-63
2021/10/26 16:55:07;;;;;;;900.72;846.65;;;21.40;60.70;;;20.50;100.00;100901.44;4993540;28;20480;-66
2021/10/26 16:57:37;;;;;;;907.53;852.67;;;21.40;61.10;;;20.43;100.00;100903.19;4991319;28;20950;-63
2021/10/26 17:00:07;;;;;;;900.63;846.42;;;21.30;61.00;;;20.39;100.00;100910.56;4990787;28;20516;-67
2021/10/26 17:02:38;;;;;;;896.42;842.00;;;21.30;61.50;;;20.31;100.00;100912.31;4991944;28;21037;-63
2021/10/26 17:05:07;;;;;;;893.17;838.97;;;21.20;62.10;;;20.19;100.00;100910.41;4992887;28;20434;-62
2021/10/26 17:07:36;;;;;;;893.97;839.97;;;21.10;62.30;;;20.09;100.00;100915.63;4992873;28;20453;-66
2021/10/26 17:10:06;;;;;;;892.13;838.05;;;21.00;62.80;;;20.01;100.00;100914.63;4991802;28;20485;-65
2021/10/26 17:12:36;;;;;;;880.28;826.58;;;20.90;62.80;;;19.94;100.00;100917.19;4992834;28;20857;-64
2021/10/26 17:15:07;;;;;;;872.00;818.80;;;20.80;63.30;;;19.88;100.00;100921.31;4993108;28;20754;-65
2021/10/26 17:17:36;;;;;;;870.05;816.17;;;20.80;63.70;;;19.85;100.00;100926.72;4993284;28;20841;-64
2021/10/26 17:20:04;;;;;;;877.43;823.87;;;20.70;63.80;;;19.84;100.00;100933.34;4992154;28;20457;-66
2021/10/26 17:22:32;;;;;;;876.95;823.45;;;20.70;64.00;;;19.84;100.00;100936.09;4992906;28;20458;-65
2021/10/26 17:25:04;;;;;;;868.73;815.13;;;20.70;64.00;;;19.79;100.00;100945.38;4992900;28;20553;-62
2021/10/26 17:27:33;;;;;;;864.88;811.58;;;20.60;64.00;;;19.75;100.00;100946.41;4992448;28;20410;-68
2021/10/26 17:30:06;;;;;;;865.72;811.83;;;20.60;64.40;;;19.67;100.00;100952.88;4991701;28;20484;-64
2021/10/26 17:32:34;;;;;;;850.60;796.08;;;20.50;66.00;;;19.58;100.00;100948.28;4992545;28;20422;-68
2021/10/26 17:35:03;;;;;;;852.60;798.20;;;20.40;67.30;;;19.51;100.00;100950.03;4992441;28;20419;-63
2021/10/26 17:37:36;;;;;;;852.50;797.50;;;20.40;68.40;;;19.40;100.00;100954.38;4992772;28;20558;-65
2021/10/26 17:40:06;;;;;;;849.22;794.88;;;20.30;69.00;;;19.28;100.00;100957.91;4991828;28;20418;-64
2021/10/26 17:42:34;;;;;;;852.63;797.90;;;20.20;69.50;;;19.17;100.00;100958.72;4991290;28;20485;-68
2021/10/26 17:45:04;;;;;;;845.22;790.53;;;20.00;70.40;;;19.06;100.00;100956.44;4992433;28;20469;-65
2021/10/26 17:47:32;;;;;;;841.27;787.10;;;19.90;71.00;;;18.90;100.00;100955.56;4992616;28;20418;-68
2021/10/26 17:50:00;;;;;;;827.20;773.25;;;19.70;71.10;;;18.68;100.00;100963.38;4991696;28;20457;-65
2021/10/26 17:52:28;;;;;;;812.90;759.50;;;19.50;71.00;;;18.46;100.00;100951.69;4992457;28;20894;-65
2021/10/26 17:54:56;;;;;;;820.50;767.13;;;19.30;73.30;;;18.36;100.00;100971.28;4992312;28;20458;-65
2021/10/26 17:57:23;;;;;;;817.28;763.72;;;19.20;73.50;;;18.24;100.00;100965.75;4992326;28;20453;-63
2021/10/26 17:59:52;;;;;;;805.28;751.55;;;19.10;74.30;;;18.17;100.00;100971.00;4991575;28;20521;-67
2021/10/26 18:02:22;;;;;;;799.50;745.95;;;19.00;74.80;;;18.13;100.00;100964.59;4991927;28;20414;-66
2021/10/26 18:04:50;;;;;;;794.28;741.60;;;19.00;75.80;;;17.96;100.00;100970.25;4992252;28;20434;-66
2021/10/26 18:07:19;;;;;;;789.10;735.80;;;18.80;75.60;;;17.77;100.00;100975.38;4992234;28;20426;-64
2021/10/26 18:09:47;;;;;;;785.78;732.33;;;18.60;76.10;;;17.68;100.00;100985.59;4991687;28;20853;-64
2021/10/26 18:12:15;;;;;;;771.85;719.03;;;18.50;77.10;;;17.51;100.00;100982.94;4991917;28;20765;-67
2021/10/26 18:14:44;;;;;;;770.40;717.37;;;18.30;77.50;;;17.39;100.00;100983.63;4992125;28;20418;-63
2021/10/26 18:17:14;;;;;;;760.47;707.93;;;18.20;78.60;;;17.29;100.00;100984.84;4992380;28;20512;-64
2021/10/26 18:19:43;;;;;;;751.20;699.47;;;18.10;79.40;;;17.26;100.00;100987.44;4991074;28;20853;-65
2021/10/26 18:22:13;;;;;;;745.08;692.85;;;18.10;80.70;;;17.24;100.00;100982.28;4991810;28;20812;-66
2021/10/26 18:24:41;;;;;;;740.07;688.27;;;18.10;82.70;;;17.13;100.00;100981.06;4991612;28;20430;-66
2021/10/26 18:27:11;;;;;;;736.75;684.85;;;18.00;80.90;;;17.09;100.00;100988.31;4992057;28;20453;-65
2021/10/26 18:29:41;;;;;;;730.77;679.07;;;17.90;80.60;;;17.02;100.00;100995.44;4991067;28;20426;-67
2021/10/26 18:32:09;;;;;;;732.05;680.55;;;17.80;81.50;;;16.81;100.00;100998.09;4991417;28;20473;-66
2021/10/26 18:34:38;;;;;;;718.15;666.17;;;17.70;79.70;;;16.50;100.00;100992.06;4991589;28;20425;-66
2021/10/26 18:37:07;;;;;;;704.55;653.30;;;17.40;79.30;;;16.25;100.00;101007.34;4991510;28;20445;-68
2021/10/26 18:39:35;;;;;;;712.58;661.05;;;17.10;80.00;;;16.18;100.00;101015.19;4990793;28;20864;-68
2021/10/26 18:42:04;;;;;;;698.47;646.63;;;17.00;81.60;;;16.21;100.00;101009.09;4991287;28;20843;-66
2021/10/26 18:44:46;;;;;;;693.42;641.28;;;17.00;82.70;;;16.18;100.00;101018.75;4991397;28;20549;-65
2021/10/26 18:47:14;;;;;;;692.20;640.33;;;17.00;82.90;;;16.14;100.00;101023.22;4991589;28;20909;-69
2021/10/26 18:49:43;;;;;;;693.05;641.40;;;17.00;83.50;;;16.07;100.00;101022.13;4990662;28;20418;-63
2021/10/26 18:52:12;;;;;;;683.25;632.22;;;16.90;82.50;;;15.99;100.00;101020.97;4991291;28;20524;-65
2021/10/26 18:54:40;;;;;;;682.28;631.30;;;16.80;82.30;;;15.92;100.00;101023.41;4990982;28;20508;-66
2021/10/26 18:57:08;;;;;;;680.70;630.00;;;16.70;82.40;;;15.79;100.00;101021.63;4991474;28;20951;-66
2021/10/26 18:59:37;;;;;;;673.17;621.97;;;16.60;82.20;;;15.67;100.00;101016.81;4990493;28;20422;-65
2021/10/26 19:02:05;;;;;;;672.63;622.20;;;16.50;83.10;;;15.55;100.00;101021.28;4991014;28;20426;-67
2021/10/26 19:04:33;;;;;;;668.80;618.05;;;16.40;83.60;;;15.49;100.00;101020.63;4990984;28;21210;-66
2021/10/26 19:07:02;;;;;;;664.72;614.55;;;16.30;84.20;;;15.53;100.00;101028.97;4990977;28;20889;-68
2021/10/26 19:09:32;;;;;;;671.25;620.50;;;16.40;83.70;;;15.48;100.00;101020.91;4990545;28;20897;-64
2021/10/26 19:12:01;;;;;;;655.92;605.60;;;16.30;84.30;;;15.45;100.00;101021.53;4991178;28;20430;-67
2021/10/26 19:14:29;;;;;;;655.75;605.60;;;16.30;83.50;;;15.34;100.00;101021.03;4990976;28;20442;-68